Time;durP1;ratioP1;P1;durP2;ratioP2;P2;SDS_P1;SDS_P2;PMS_P1;PMS_P2;Temp;Humidity;BMP_temperature;BMP_pressure;BME280_temperature;BME280_humidity;BME280_pressure;Samples;Min_cycle;Max_cycle;Signal;HPM_P1;HPM_P2
2023/03/30 00:01:11;;;;;;;3.35;1.98;;;13.70;99.90;;;;;;4188631;28;20044;-69
2023/03/30 00:03:11;;;;;;;6.22;2.28;;;13.70;99.90;;;;;;4188791;28;20021;-70
2023/03/30 00:05:12;;;;;;;3.55;2.03;;;13.70;99.90;;;;;;4190445;28;20373;-69
2023/03/30 00:07:13;;;;;;;5.28;2.15;;;13.70;99.90;;;;;;4200691;28;20035;-69
2023/03/30 00:09:14;;;;;;;8.35;2.17;;;13.70;99.90;;;;;;4191274;28;20498;-68
2023/03/30 00:11:16;;;;;;;4.40;1.90;;;13.70;99.90;;;;;;4164846;28;20034;-69
2023/03/30 00:13:16;;;;;;;7.25;2.13;;;13.70;99.90;;;;;;4185381;28;20395;-70
2023/03/30 00:15:20;;;;;;;5.93;2.15;;;13.70;99.90;;;;;;4186851;28;20029;-69
2023/03/30 00:17:21;;;;;;;3.42;1.80;;;13.70;99.90;;;;;;4189183;28;20473;-69
2023/03/30 00:19:21;;;;;;;4.65;1.50;;;13.80;99.90;;;;;;4185008;28;20036;-69
2023/03/30 00:21:22;;;;;;;4.50;2.05;;;13.80;99.90;;;;;;4195697;28;20036;-70
2023/03/30 00:23:23;;;;;;;5.55;2.05;;;13.80;99.90;;;;;;4201218;28;20119;-69
2023/03/30 00:25:24;;;;;;;7.82;1.52;;;13.80;99.90;;;;;;4185648;28;20044;-70
2023/03/30 00:27:25;;;;;;;3.15;1.80;;;13.80;99.90;;;;;;4189004;28;20060;-69
2023/03/30 00:29:25;;;;;;;6.32;1.80;;;13.90;99.90;;;;;;4185594;28;20029;-69
2023/03/30 00:31:26;;;;;;;4.03;1.58;;;13.90;99.90;;;;;;4188404;28;20032;-69
2023/03/30 00:33:26;;;;;;;3.42;1.60;;;13.90;99.90;;;;;;4184078;28;20036;-70
2023/03/30 00:35:29;;;;;;;8.68;1.85;;;13.90;99.90;;;;;;4192824;28;20041;-70
2023/03/30 00:37:31;;;;;;;4.75;1.55;;;13.90;99.90;;;;;;4187530;28;20381;-70
2023/03/30 00:39:32;;;;;;;4.40;1.97;;;13.90;99.90;;;;;;4187224;28;20120;-69
2023/03/30 00:41:34;;;;;;;6.75;1.80;;;13.90;99.90;;;;;;4188652;28;20613;-69
2023/03/30 00:43:54;;;;;;;5.80;1.83;;;13.90;99.90;;;;;;4195370;28;20028;-68
2023/03/30 00:45:56;;;;;;;5.53;2.17;;;13.90;99.90;;;;;;4186098;28;20115;-69
2023/03/30 00:48:17;;;;;;;6.63;2.00;;;13.80;99.90;;;;;;4180298;28;20028;-70
2023/03/30 00:50:22;;;;;;;3.60;2.03;;;13.90;99.90;;;;;;4176487;28;20033;-69
2023/03/30 00:52:23;;;;;;;7.30;2.38;;;13.80;99.90;;;;;;4178604;28;20488;-69
2023/03/30 00:54:24;;;;;;;6.47;2.20;;;13.80;99.90;;;;;;4183639;28;20507;-69
2023/03/30 00:56:29;;;;;;;4.60;1.73;;;13.80;99.90;;;;;;4181816;28;20053;-69
2023/03/30 00:58:30;;;;;;;7.63;2.40;;;13.80;99.90;;;;;;4187660;28;20051;-69
2023/03/30 01:00:33;;;;;;;6.50;2.77;;;13.80;99.90;;;;;;4186301;28;20041;-70
2023/03/30 01:02:40;;;;;;;9.70;2.03;;;13.80;99.90;;;;;;4184970;28;20124;-68
2023/03/30 01:04:41;;;;;;;2.45;1.77;;;13.80;99.90;;;;;;4187889;28;20091;-69
2023/03/30 01:06:45;;;;;;;6.45;2.33;;;13.80;99.90;;;;;;4189173;28;20108;-69
2023/03/30 01:08:45;;;;;;;4.32;2.28;;;13.80;99.90;;;;;;4178332;28;20073;-68
2023/03/30 01:10:46;;;;;;;3.45;1.70;;;13.80;99.90;;;;;;4182956;28;20037;-68
2023/03/30 01:12:47;;;;;;;6.53;1.90;;;13.80;99.90;;;;;;4183248;28;20038;-69
2023/03/30 01:14:47;;;;;;;5.32;2.30;;;13.80;99.90;;;;;;4184966;28;20036;-68
2023/03/30 01:16:51;;;;;;;5.53;2.05;;;13.70;99.90;;;;;;4180897;28;20036;-69
2023/03/30 01:19:06;;;;;;;8.23;2.10;;;13.70;99.90;;;;;;4190318;28;20117;-69
2023/03/30 01:21:12;;;;;;;7.07;2.00;;;13.70;99.90;;;;;;4181690;28;20039;-69
2023/03/30 01:23:51;;;;;;;4.20;1.75;;;13.60;99.90;;;;;;4179126;28;20119;-69
2023/03/30 01:26:11;;;;;;;4.70;1.83;;;13.70;99.90;;;;;;4170075;28;20033;-69
2023/03/30 01:28:20;;;;;;;4.10;2.05;;;13.60;99.90;;;;;;4165345;28;20032;-70
2023/03/30 01:31:08;;;;;;;5.43;1.90;;;13.70;99.90;;;;;;4162829;28;20026;-69
2023/03/30 01:33:26;;;;;;;4.75;1.95;;;13.70;99.90;;;;;;4114346;28;20121;-69
2023/03/30 01:35:33;;;;;;;4.80;1.42;;;13.70;99.90;;;;;;4187378;28;20044;-69
2023/03/30 01:37:45;;;;;;;3.33;1.50;;;13.70;99.90;;;;;;4175533;28;20144;-69
2023/03/30 01:40:10;;;;;;;4.45;1.90;;;13.70;99.90;;;;;;4169714;28;20045;-69
2023/03/30 01:42:32;;;;;;;4.43;1.73;;;13.70;99.90;;;;;;4166585;28;20446;-69
2023/03/30 01:44:52;;;;;;;6.03;1.80;;;13.70;99.90;;;;;;4166758;28;20033;-68
2023/03/30 01:47:16;;;;;;;3.65;1.60;;;13.70;99.90;;;;;;4169203;28;20432;-69
2023/03/30 01:49:28;;;;;;;4.25;1.60;;;13.70;99.90;;;;;;4175110;28;20030;-69
2023/03/30 01:51:34;;;;;;;6.70;1.80;;;13.70;99.90;;;;;;4169491;28;20041;-69
2023/03/30 01:53:46;;;;;;;5.10;1.80;;;13.70;99.90;;;;;;4167918;28;20041;-68
2023/03/30 01:56:19;;;;;;;3.93;1.97;;;13.70;99.90;;;;;;4185805;28;20436;-68
2023/03/30 01:58:36;;;;;;;4.20;1.85;;;13.70;99.90;;;;;;4177818;28;20269;-69
2023/03/30 02:00:39;;;;;;;8.23;1.80;;;13.70;99.90;;;;;;4178258;28;20032;-69
2023/03/30 02:02:45;;;;;;;3.88;1.60;;;13.80;99.90;;;;;;4168369;28;20098;-69
2023/03/30 02:04:47;;;;;;;5.50;2.08;;;13.80;99.90;;;;;;4164409;28;20124;-66
2023/03/30 02:06:55;;;;;;;6.03;1.73;;;13.80;99.90;;;;;;4166489;28;20489;-69
2023/03/30 02:08:58;;;;;;;5.75;1.58;;;13.80;99.90;;;;;;4168000;28;20021;-69
2023/03/30 02:10:59;;;;;;;6.40;2.13;;;13.80;99.90;;;;;;4168725;28;20051;-69
2023/03/30 02:13:01;;;;;;;3.58;1.50;;;13.80;99.90;;;;;;4170610;28;20109;-69
2023/03/30 02:15:06;;;;;;;4.20;1.75;;;13.80;99.90;;;;;;4169494;28;20025;-70
2023/03/30 02:17:17;;;;;;;3.63;1.77;;;13.90;99.90;;;;;;4167652;28;20033;-69
2023/03/30 02:19:18;;;;;;;4.35;1.75;;;13.90;99.90;;;;;;4164422;28;20041;-68
2023/03/30 02:21:19;;;;;;;8.07;1.85;;;13.90;99.90;;;;;;4164002;28;20492;-69
2023/03/30 02:23:22;;;;;;;5.55;2.13;;;13.90;99.90;;;;;;4169561;28;21489;-69
2023/03/30 02:25:23;;;;;;;3.75;1.85;;;13.90;99.90;;;;;;4164830;28;20044;-69
2023/03/30 02:27:25;;;;;;;6.47;1.73;;;13.90;99.90;;;;;;4166364;28;20044;-69
2023/03/30 02:29:27;;;;;;;5.95;2.05;;;13.90;99.90;;;;;;4174701;28;20083;-69
2023/03/30 02:31:29;;;;;;;4.97;1.80;;;13.90;99.90;;;;;;4172003;28;20029;-69
2023/03/30 02:33:57;;;;;;;7.80;2.28;;;14.00;99.90;;;;;;4167397;28;20068;-69
2023/03/30 02:36:31;;;;;;;5.50;1.42;;;14.00;99.90;;;;;;4180636;28;20036;-69
2023/03/30 02:39:00;;;;;;;6.65;2.25;;;14.00;99.90;;;;;;4151048;28;20512;-68
2023/03/30 02:41:01;;;;;;;6.70;2.08;;;14.00;99.90;;;;;;4155475;28;20046;-69
2023/03/30 02:43:21;;;;;;;5.28;2.33;;;14.00;99.90;;;;;;4152886;28;20045;-69
2023/03/30 02:45:47;;;;;;;4.82;1.83;;;14.00;99.90;;;;;;4168537;28;20033;-69
2023/03/30 02:48:01;;;;;;;8.05;2.40;;;14.00;99.90;;;;;;4167434;28;20045;-69
2023/03/30 02:50:09;;;;;;;4.78;1.90;;;14.00;99.90;;;;;;4165722;28;20041;-69
2023/03/30 02:52:41;;;;;;;6.43;2.22;;;14.10;99.90;;;;;;4155453;28;20034;-69
2023/03/30 02:54:56;;;;;;;6.90;2.08;;;14.10;99.90;;;;;;4181152;28;20413;-69
2023/03/30 02:57:12;;;;;;;6.40;1.80;;;14.10;99.90;;;;;;4166102;28;20477;-69
2023/03/30 02:59:26;;;;;;;4.40;1.92;;;14.10;99.90;;;;;;4162246;28;20102;-70
2023/03/30 03:01:46;;;;;;;7.45;1.75;;;14.10;99.90;;;;;;4164691;28;20037;-69
2023/03/30 03:03:50;;;;;;;2.90;1.60;;;14.10;99.90;;;;;;4150367;28;20041;-69
2023/03/30 03:05:52;;;;;;;6.22;1.75;;;14.10;99.90;;;;;;4163447;28;20448;-70
2023/03/30 03:07:53;;;;;;;3.65;1.60;;;14.10;99.90;;;;;;4173057;28;20037;-69
2023/03/30 03:09:54;;;;;;;4.20;1.70;;;14.10;99.90;;;;;;4160789;28;20034;-69
2023/03/30 03:11:55;;;;;;;4.57;1.90;;;14.20;99.90;;;;;;4153372;28;20433;-69
2023/03/30 03:13:55;;;;;;;3.92;1.90;;;14.10;99.90;;;;;;4154007;28;20042;-69
2023/03/30 03:15:56;;;;;;;5.72;2.00;;;14.10;99.90;;;;;;4163683;28;20227;-69
2023/03/30 03:17:57;;;;;;;3.50;1.60;;;14.10;99.90;;;;;;4160786;28;20029;-70
2023/03/30 03:19:57;;;;;;;4.57;1.65;;;14.20;99.90;;;;;;4168120;28;20424;-69
2023/03/30 03:21:58;;;;;;;3.20;1.48;;;14.20;99.90;;;;;;4177992;28;20057;-69
2023/03/30 03:23:59;;;;;;;4.90;2.00;;;14.20;99.90;;;;;;4175384;28;20027;-69
2023/03/30 03:26:00;;;;;;;6.47;1.63;;;14.20;99.90;;;;;;4188019;28;20107;-69
2023/03/30 03:28:00;;;;;;;4.13;1.70;;;14.30;99.90;;;;;;4161060;28;20087;-69
2023/03/30 03:30:01;;;;;;;7.53;2.10;;;14.30;99.90;;;;;;4164064;28;20049;-69
2023/03/30 03:32:02;;;;;;;5.45;1.63;;;14.30;99.90;;;;;;4166107;28;20029;-69
2023/03/30 03:34:02;;;;;;;3.80;1.50;;;14.30;99.90;;;;;;4164574;28;20494;-69
2023/03/30 03:36:04;;;;;;;3.40;1.58;;;14.30;99.90;;;;;;4159854;28;20033;-70
2023/03/30 03:38:08;;;;;;;5.05;1.70;;;14.30;99.90;;;;;;4182788;28;20135;-69
2023/03/30 03:40:10;;;;;;;4.13;1.60;;;14.30;99.90;;;;;;4184878;28;20499;-71
2023/03/30 03:42:11;;;;;;;6.65;2.42;;;14.30;99.90;;;;;;4184803;28;20031;-69
2023/03/30 03:44:11;;;;;;;5.35;1.58;;;14.40;99.90;;;;;;4188126;28;20037;-69
2023/03/30 03:46:14;;;;;;;5.47;1.50;;;14.30;99.90;;;;;;4184162;28;20028;-69
2023/03/30 03:48:16;;;;;;;3.00;1.55;;;14.40;99.90;;;;;;4177745;28;20536;-69
2023/03/30 03:50:17;;;;;;;;;;;14.40;99.90;;;;;;4178732;28;20036;-69
2023/03/30 03:52:18;;;;;;;3.42;1.73;;;14.40;99.90;;;;;;4172457;28;19909;-69
2023/03/30 03:54:18;;;;;;;2.63;1.30;;;14.40;99.90;;;;;;4171841;28;20036;-69
2023/03/30 03:56:19;;;;;;;3.83;1.30;;;14.50;99.90;;;;;;4167053;28;20033;-68
2023/03/30 03:58:20;;;;;;;4.20;1.50;;;14.50;99.90;;;;;;4177328;28;20048;-69
2023/03/30 04:00:22;;;;;;;4.00;1.30;;;14.50;99.90;;;;;;4166964;28;20041;-69
2023/03/30 04:02:22;;;;;;;2.92;1.48;;;14.50;99.90;;;;;;4172995;28;20459;-69
2023/03/30 04:04:23;;;;;;;4.32;1.60;;;14.50;99.90;;;;;;4166558;28;20037;-69
2023/03/30 04:06:23;;;;;;;3.45;1.50;;;14.50;99.90;;;;;;4170174;28;20051;-69
2023/03/30 04:08:24;;;;;;;6.30;1.55;;;14.50;99.90;;;;;;4171286;28;20096;-70
2023/03/30 04:10:25;;;;;;;3.80;1.50;;;14.50;99.90;;;;;;4167872;28;20029;-70
2023/03/30 04:12:28;;;;;;;2.92;1.67;;;14.50;99.90;;;;;;4176559;28;20389;-69
2023/03/30 04:14:28;;;;;;;5.22;1.50;;;14.50;99.90;;;;;;4171055;28;20025;-70
2023/03/30 04:16:29;;;;;;;6.15;1.90;;;14.50;99.90;;;;;;4172891;28;20053;-69
2023/03/30 04:18:32;;;;;;;3.83;1.40;;;14.50;99.90;;;;;;4174663;28;20029;-69
2023/03/30 04:20:32;;;;;;;4.55;1.70;;;14.60;99.90;;;;;;4169934;28;20083;-69
2023/03/30 04:22:36;;;;;;;7.00;1.85;;;14.60;99.90;;;;;;4171712;28;20037;-70
2023/03/30 04:24:36;;;;;;;5.10;1.52;;;14.60;99.90;;;;;;4188253;28;20028;-70
2023/03/30 04:26:37;;;;;;;6.47;1.75;;;14.60;99.90;;;;;;4186026;28;20075;-69
2023/03/30 04:28:39;;;;;;;7.68;2.10;;;14.60;99.90;;;;;;4171201;28;20084;-68
2023/03/30 04:30:39;;;;;;;4.95;1.50;;;14.70;99.90;;;;;;4174529;28;20076;-69
2023/03/30 04:32:40;;;;;;;2.50;1.40;;;14.70;99.90;;;;;;4172556;28;20030;-69
2023/03/30 04:34:44;;;;;;;4.78;1.60;;;14.70;99.90;;;;;;4168748;28;20044;-68
2023/03/30 04:36:44;;;;;;;6.55;1.73;;;14.70;99.90;;;;;;4167278;28;20036;-69
2023/03/30 04:38:57;;;;;;;5.00;1.60;;;14.70;99.90;;;;;;4183947;28;20702;-69
2023/03/30 04:41:00;;;;;;;2.15;1.00;;;14.80;99.90;;;;;;4186791;28;20124;-69
2023/03/30 04:43:02;;;;;;;2.85;1.45;;;14.80;99.90;;;;;;4184348;28;20021;-69
2023/03/30 04:45:08;;;;;;;1.83;1.23;;;14.80;99.90;;;;;;4171997;28;20028;-71
2023/03/30 04:47:09;;;;;;;4.60;1.38;;;14.80;99.90;;;;;;4184075;28;20159;-68
2023/03/30 04:49:10;;;;;;;4.63;1.42;;;14.80;99.90;;;;;;4184629;28;20484;-69
2023/03/30 04:51:10;;;;;;;3.58;1.23;;;14.80;99.90;;;;;;4190103;28;20471;-69
2023/03/30 04:53:13;;;;;;;3.55;1.55;;;14.80;99.90;;;;;;4180177;28;20025;-70
2023/03/30 04:55:14;;;;;;;5.93;1.98;;;14.80;99.90;;;;;;4172677;28;20037;-70
2023/03/30 04:57:15;;;;;;;3.70;1.70;;;14.80;99.90;;;;;;4173410;28;20485;-70
2023/03/30 04:59:16;;;;;;;2.97;1.45;;;14.70;99.90;;;;;;4174867;28;20039;-70
2023/03/30 05:01:16;;;;;;;6.32;1.92;;;14.80;99.90;;;;;;4176310;28;20036;-70
2023/03/30 05:03:17;;;;;;;4.80;1.90;;;14.70;99.90;;;;;;4178308;28;20388;-70
2023/03/30 05:05:17;;;;;;;5.03;2.03;;;14.70;99.90;;;;;;4177846;28;20569;-70
2023/03/30 05:07:18;;;;;;;3.25;1.52;;;14.70;99.90;;;;;;4184876;28;20043;-69
2023/03/30 05:09:19;;;;;;;9.55;2.47;;;14.70;99.90;;;;;;4174256;28;20111;-68
2023/03/30 05:11:19;;;;;;;9.55;2.22;;;14.60;99.90;;;;;;4168416;28;20087;-69
2023/03/30 05:13:20;;;;;;;7.15;2.33;;;14.70;99.90;;;;;;4174876;28;20502;-69
2023/03/30 05:15:20;;;;;;;4.18;1.95;;;14.60;99.90;;;;;;4175247;28;20056;-69
2023/03/30 05:17:21;;;;;;;7.93;2.08;;;14.60;99.90;;;;;;4174235;28;20031;-69
2023/03/30 05:19:21;;;;;;;6.53;2.20;;;14.60;99.90;;;;;;4167412;28;20034;-69
2023/03/30 05:21:22;;;;;;;5.00;2.00;;;14.60;99.90;;;;;;4166796;28;20029;-69
2023/03/30 05:23:24;;;;;;;4.78;1.60;;;14.60;99.90;;;;;;4166800;28;20039;-69
2023/03/30 05:25:24;;;;;;;11.73;2.25;;;14.60;99.90;;;;;;4164938;28;20427;-69
2023/03/30 05:27:25;;;;;;;5.43;1.67;;;14.60;99.90;;;;;;4174069;28;20303;-69
2023/03/30 05:29:26;;;;;;;5.93;1.77;;;14.60;99.90;;;;;;4170566;28;20037;-69
2023/03/30 05:31:27;;;;;;;4.88;1.77;;;14.60;99.90;;;;;;4178817;28;20480;-69
2023/03/30 05:33:27;;;;;;;2.80;1.58;;;14.60;99.90;;;;;;4171819;28;20108;-70
2023/03/30 05:35:28;;;;;;;5.40;2.10;;;14.60;99.90;;;;;;4166723;28;20037;-70
2023/03/30 05:37:28;;;;;;;4.72;1.42;;;14.60;99.90;;;;;;4187618;28;20135;-69
2023/03/30 05:39:29;;;;;;;4.32;1.92;;;14.60;99.90;;;;;;4182408;28;20070;-69
2023/03/30 05:41:30;;;;;;;5.45;2.25;;;14.60;99.90;;;;;;4175651;28;20041;-69
2023/03/30 05:43:31;;;;;;;6.25;2.10;;;14.60;99.90;;;;;;4183652;28;20112;-69
2023/03/30 05:45:32;;;;;;;4.75;1.95;;;14.50;99.90;;;;;;4184342;28;20037;-69
2023/03/30 05:47:34;;;;;;;5.80;2.15;;;14.50;99.90;;;;;;4173105;28;20383;-69
2023/03/30 05:49:35;;;;;;;5.60;2.10;;;14.50;99.90;;;;;;4173486;28;20079;-69
2023/03/30 05:51:35;;;;;;;6.65;1.70;;;14.50;99.90;;;;;;4184063;28;20496;-69
2023/03/30 05:53:36;;;;;;;4.90;1.98;;;14.50;99.90;;;;;;4185523;28;20043;-69
2023/03/30 05:55:37;;;;;;;5.57;1.92;;;14.50;99.90;;;;;;4172956;28;20048;-69
2023/03/30 05:57:37;;;;;;;8.57;2.00;;;14.50;99.90;;;;;;4168167;28;20100;-69
2023/03/30 05:59:38;;;;;;;15.00;3.60;;;14.50;99.90;;;;;;4168594;28;20048;-70
2023/03/30 06:01:39;;;;;;;8.93;2.42;;;14.50;99.90;;;;;;4166556;28;20559;-70
2023/03/30 06:03:40;;;;;;;6.22;1.70;;;14.50;99.90;;;;;;4168306;28;20131;-70
2023/03/30 06:05:42;;;;;;;6.40;1.83;;;14.50;99.90;;;;;;4162249;28;20072;-68
2023/03/30 06:07:44;;;;;;;5.57;1.67;;;14.50;99.90;;;;;;4169111;28;20029;-69
2023/03/30 06:09:45;;;;;;;4.95;1.73;;;14.50;99.90;;;;;;4170791;28;20119;-69
2023/03/30 06:11:45;;;;;;;6.40;1.95;;;14.50;99.90;;;;;;4166973;28;20033;-69
2023/03/30 06:13:46;;;;;;;3.30;1.40;;;14.60;99.90;;;;;;4165639;28;20042;-70
2023/03/30 06:15:47;;;;;;;4.93;1.90;;;14.60;99.90;;;;;;4175547;28;20083;-69
2023/03/30 06:17:48;;;;;;;3.95;1.42;;;14.60;99.90;;;;;;4184539;28;20043;-69
2023/03/30 06:19:48;;;;;;;10.13;2.17;;;14.60;99.90;;;;;;4184325;28;20053;-70
2023/03/30 06:21:49;;;;;;;31.35;3.55;;;14.60;99.90;;;;;;4178568;28;20558;-70
2023/03/30 06:23:49;;;;;;;10.55;2.47;;;14.60;99.90;;;;;;4179646;28;20045;-68
2023/03/30 06:25:54;;;;;;;3.97;1.83;;;14.60;99.90;;;;;;4175066;28;20037;-69
2023/03/30 06:27:55;;;;;;;4.45;1.48;;;14.60;99.90;;;;;;4165294;28;20029;-70
2023/03/30 06:29:55;;;;;;;3.10;1.40;;;14.70;99.90;;;;;;4168103;28;20060;-70
2023/03/30 06:31:56;;;;;;;2.97;1.38;;;14.70;99.90;;;;;;4167191;28;20037;-70
2023/03/30 06:33:56;;;;;;;4.93;1.42;;;14.70;99.90;;;;;;4167684;28;20025;-70
2023/03/30 06:35:57;;;;;;;3.35;1.00;;;14.70;99.90;;;;;;4164888;28;20519;-70
2023/03/30 06:37:57;;;;;;;4.00;1.35;;;14.80;99.90;;;;;;4178042;28;20088;-70
2023/03/30 06:39:58;;;;;;;4.65;1.50;;;14.80;99.90;;;;;;4167606;28;20045;-70
2023/03/30 06:41:59;;;;;;;2.58;1.50;;;14.80;99.90;;;;;;4168968;28;21192;-70
2023/03/30 06:43:59;;;;;;;3.85;1.40;;;14.80;99.90;;;;;;4162867;28;20029;-69
2023/03/30 06:46:00;;;;;;;5.65;1.35;;;14.80;99.90;;;;;;4181793;28;20119;-70
2023/03/30 06:48:01;;;;;;;3.75;1.55;;;14.80;99.90;;;;;;4185673;28;20035;-69
2023/03/30 06:50:02;;;;;;;2.88;1.30;;;14.80;99.90;;;;;;4182768;28;20045;-70
2023/03/30 06:52:03;;;;;;;4.30;1.70;;;14.80;99.90;;;;;;4183741;28;20037;-70
2023/03/30 06:54:03;;;;;;;3.22;1.15;;;14.90;99.90;;;;;;4184226;28;20028;-69
2023/03/30 06:56:05;;;;;;;12.32;1.58;;;14.90;99.90;;;;;;4179951;28;20032;-70
2023/03/30 06:58:06;;;;;;;3.33;1.30;;;14.90;99.90;;;;;;4185503;28;20033;-70
2023/03/30 07:00:14;;;;;;;3.80;1.48;;;14.80;99.90;;;;;;4182996;28;20040;-70
2023/03/30 07:02:15;;;;;;;4.63;1.90;;;14.80;99.90;;;;;;4171259;28;20037;-69
2023/03/30 07:04:15;;;;;;;5.10;1.65;;;14.80;99.90;;;;;;4169060;28;20033;-70
2023/03/30 07:06:16;;;;;;;4.65;1.42;;;14.90;99.90;;;;;;4164670;28;20040;-70
2023/03/30 07:08:18;;;;;;;4.30;1.65;;;14.90;99.90;;;;;;4170615;28;20033;-70
2023/03/30 07:10:20;;;;;;;8.27;1.73;;;14.90;99.90;;;;;;4169529;28;21607;-70
2023/03/30 07:12:21;;;;;;;5.32;1.60;;;14.80;99.90;;;;;;4183010;28;20332;-69
2023/03/30 07:14:22;;;;;;;2.25;1.40;;;14.80;99.90;;;;;;4191077;28;20433;-69
2023/03/30 07:16:23;;;;;;;6.55;2.00;;;14.80;99.90;;;;;;4181319;28;20037;-69
2023/03/30 07:18:24;;;;;;;4.70;1.80;;;14.80;99.90;;;;;;4184374;28;20032;-70
2023/03/30 07:20:25;;;;;;;7.38;1.60;;;14.80;99.90;;;;;;4186667;28;20064;-70
2023/03/30 07:22:26;;;;;;;2.55;1.30;;;14.80;99.90;;;;;;4183034;28;20044;-71
2023/03/30 07:24:26;;;;;;;5.70;1.65;;;14.80;99.90;;;;;;4181311;28;20086;-70
2023/03/30 07:26:28;;;;;;;5.60;1.90;;;14.70;99.90;;;;;;4170606;28;20116;-70
2023/03/30 07:28:28;;;;;;;4.57;1.48;;;14.70;99.90;;;;;;4167484;28;20489;-70
2023/03/30 07:30:29;;;;;;;5.10;1.20;;;14.70;99.90;;;;;;4170319;28;20504;-70
2023/03/30 07:32:30;;;;;;;3.38;1.60;;;14.70;99.90;;;;;;4169082;28;20400;-70
2023/03/30 07:34:32;;;;;;;4.15;1.65;;;14.70;99.90;;;;;;4170627;28;20041;-70
2023/03/30 07:36:33;;;;;;;7.50;1.90;;;14.60;99.90;;;;;;4170873;28;20037;-71
2023/03/30 07:38:33;;;;;;;6.30;1.65;;;14.60;99.90;;;;;;4191772;28;20040;-71
2023/03/30 07:40:34;;;;;;;4.13;1.75;;;14.60;99.90;;;;;;4187183;28;20054;-70
2023/03/30 07:42:35;;;;;;;7.93;1.63;;;14.60;99.90;;;;;;4192817;28;20027;-70
2023/03/30 07:44:36;;;;;;;5.95;1.77;;;14.60;99.90;;;;;;4186659;28;20036;-71
2023/03/30 07:46:37;;;;;;;4.50;1.83;;;14.60;99.90;;;;;;4190256;28;20024;-71
2023/03/30 07:48:39;;;;;;;6.22;1.58;;;14.60;99.90;;;;;;4198934;28;20024;-71
2023/03/30 07:50:40;;;;;;;5.13;1.45;;;14.60;99.90;;;;;;4177486;28;20035;-70
2023/03/30 07:52:40;;;;;;;4.85;1.70;;;14.60;99.90;;;;;;4189914;28;20132;-69
2023/03/30 07:54:42;;;;;;;5.70;1.77;;;14.60;99.90;;;;;;4182215;28;20412;-70
2023/03/30 07:56:44;;;;;;;5.13;1.77;;;14.60;99.90;;;;;;4177340;28;20455;-70
2023/03/30 07:58:44;;;;;;;6.03;2.03;;;14.50;99.90;;;;;;4184075;28;20533;-70
2023/03/30 08:00:46;;;;;;;5.32;1.85;;;14.50;99.90;;;;;;4157545;28;20026;-71
2023/03/30 08:02:47;;;;;;;5.22;1.52;;;14.40;99.90;;;;;;4185366;28;20020;-70
2023/03/30 08:04:48;;;;;;;3.65;1.30;;;14.40;99.90;;;;;;4178388;28;20021;-70
2023/03/30 08:06:49;;;;;;;2.47;1.20;;;14.40;99.90;;;;;;4172311;28;20021;-71
2023/03/30 08:08:49;;;;;;;5.85;2.00;;;14.40;99.90;;;;;;4165513;28;20033;-71
2023/03/30 08:10:50;;;;;;;9.10;1.90;;;14.40;99.90;;;;;;4172269;28;20502;-71
2023/03/30 08:12:50;;;;;;;8.55;2.05;;;14.30;99.90;;;;;;4182851;28;20380;-70
2023/03/30 08:14:52;;;;;;;5.68;1.77;;;14.30;99.90;;;;;;4175780;28;20470;-70
2023/03/30 08:16:53;;;;;;;4.97;1.60;;;14.30;99.90;;;;;;4174557;28;20515;-71
2023/03/30 08:18:54;;;;;;;7.80;2.10;;;14.30;99.90;;;;;;4181865;28;20119;-70
2023/03/30 08:20:55;;;;;;;6.18;1.95;;;14.30;99.90;;;;;;4187264;28;20028;-70
2023/03/30 08:22:56;;;;;;;3.13;1.40;;;14.30;99.90;;;;;;4162060;28;20470;-70
2023/03/30 08:24:56;;;;;;;3.47;1.58;;;14.30;99.90;;;;;;4163140;28;20032;-70
2023/03/30 08:26:57;;;;;;;8.45;2.42;;;14.30;99.90;;;;;;4170944;28;20022;-70
2023/03/30 08:28:58;;;;;;;4.95;1.63;;;14.30;99.90;;;;;;4166725;28;20391;-70
2023/03/30 08:31:04;;;;;;;5.65;1.48;;;14.30;99.90;;;;;;4161944;28;20503;-71
2023/03/30 08:33:05;;;;;;;8.93;2.15;;;14.30;99.90;;;;;;4181303;28;20033;-71
2023/03/30 08:35:06;;;;;;;4.88;1.58;;;14.30;99.90;;;;;;4182072;28;20392;-71
2023/03/30 08:37:06;;;;;;;5.50;1.55;;;14.30;99.90;;;;;;4172966;28;20453;-71
2023/03/30 08:39:07;;;;;;;8.85;2.20;;;14.30;99.90;;;;;;4183320;28;20066;-71
2023/03/30 08:41:30;;;;;;;5.57;2.22;;;14.30;99.90;;;;;;4184602;28;20078;-71
2023/03/30 08:43:43;;;;;;;7.07;2.13;;;14.30;99.90;;;;;;4180425;28;20033;-71
2023/03/30 08:45:45;;;;;;;7.80;1.83;;;14.40;99.90;;;;;;4173083;28;20117;-71
2023/03/30 08:47:49;;;;;;;8.20;1.90;;;14.40;99.90;;;;;;4165461;28;20029;-71
2023/03/30 08:50:18;;;;;;;10.35;1.90;;;14.30;99.90;;;;;;4175905;28;20383;-70
2023/03/30 08:52:22;;;;;;;10.68;2.13;;;14.30;99.90;;;;;;4178980;28;20107;-70
2023/03/30 08:54:26;;;;;;;8.90;1.83;;;14.30;99.90;;;;;;4167029;28;20060;-70
2023/03/30 08:56:38;;;;;;;7.75;2.17;;;14.40;99.90;;;;;;4181237;28;20090;-70
2023/03/30 08:58:52;;;;;;;6.70;1.67;;;14.30;99.90;;;;;;4168355;28;20033;-70
2023/03/30 09:01:05;;;;;;;5.85;1.88;;;14.40;99.90;;;;;;4163826;28;20033;-69
2023/03/30 09:03:15;;;;;;;9.88;2.22;;;14.40;99.90;;;;;;4189349;28;20044;-71
2023/03/30 09:05:25;;;;;;;7.65;1.90;;;14.60;99.90;;;;;;4170973;28;20499;-71
2023/03/30 09:07:50;;;;;;;8.68;2.05;;;14.60;99.90;;;;;;4178103;28;20183;-70
2023/03/30 09:09:52;;;;;;;7.03;2.08;;;14.70;99.90;;;;;;4163975;28;20021;-72
2023/03/30 09:12:03;;;;;;;9.80;2.05;;;14.80;99.90;;;;;;4177525;28;20033;-71
2023/03/30 09:14:07;;;;;;;7.72;2.05;;;14.90;99.90;;;;;;4185087;28;21099;-71
2023/03/30 09:16:32;;;;;;;5.85;2.00;;;15.00;99.90;;;;;;4171528;28;20026;-72
2023/03/30 09:18:40;;;;;;;7.38;2.05;;;15.20;99.90;;;;;;4178755;28;20057;-72
2023/03/30 09:20:42;;;;;;;9.73;1.77;;;15.30;99.90;;;;;;4187630;28;20109;-71
2023/03/30 09:22:44;;;;;;;9.02;2.03;;;15.40;99.90;;;;;;4165426;28;20034;-72
2023/03/30 09:24:45;;;;;;;8.20;1.83;;;15.40;99.90;;;;;;4180652;28;20025;-70
2023/03/30 09:27:07;;;;;;;8.32;1.92;;;15.40;99.90;;;;;;4173360;28;20104;-70
2023/03/30 09:29:17;;;;;;;5.45;2.03;;;15.40;99.90;;;;;;4158717;28;20033;-72
2023/03/30 09:31:23;;;;;;;7.50;2.50;;;15.40;99.90;;;;;;4172430;28;20104;-70
2023/03/30 09:33:45;;;;;;;7.47;1.80;;;15.40;99.90;;;;;;4181232;28;20025;-71
2023/03/30 09:36:09;;;;;;;8.65;2.00;;;15.40;99.90;;;;;;4188377;28;20055;-69
2023/03/30 09:38:11;;;;;;;11.82;2.55;;;15.40;99.90;;;;;;4169595;28;20037;-72
2023/03/30 09:40:31;;;;;;;;;;;15.40;99.90;;;;;;4197848;28;20040;-71
2023/03/30 09:42:42;;;;;;;7.63;2.38;;;15.30;99.90;;;;;;4169799;28;19909;-71
2023/03/30 09:44:54;;;;;;;7.45;2.00;;;15.30;99.90;;;;;;4180481;28;20028;-70
2023/03/30 09:46:57;;;;;;;7.63;2.10;;;15.30;99.90;;;;;;4183790;28;20032;-70
2023/03/30 09:49:13;;;;;;;11.18;2.00;;;15.30;99.90;;;;;;4186356;28;20035;-71
2023/03/30 09:51:22;;;;;;;8.43;2.00;;;15.30;99.90;;;;;;4181596;28;20111;-71
2023/03/30 09:53:25;;;;;;;7.47;2.20;;;15.30;99.90;;;;;;4177305;28;20496;-71
2023/03/30 09:55:36;;;;;;;9.27;2.03;;;15.20;99.90;;;;;;4169677;28;20042;-72
2023/03/30 09:57:37;;;;;;;7.95;1.80;;;15.20;99.90;;;;;;4176259;28;20476;-72
2023/03/30 09:59:38;;;;;;;12.13;2.67;;;15.20;99.90;;;;;;4171073;28;20103;-71
2023/03/30 10:01:38;;;;;;;14.18;2.67;;;15.20;99.90;;;;;;4180855;28;20063;-71
2023/03/30 10:03:44;;;;;;;6.82;2.25;;;15.20;99.90;;;;;;4159455;28;20450;-71
2023/03/30 10:05:58;;;;;;;5.55;1.85;;;15.10;99.90;;;;;;4179008;28;20033;-71
2023/03/30 10:08:16;;;;;;;7.82;2.22;;;15.10;99.90;;;;;;4172575;28;20422;-71
2023/03/30 10:10:19;;;;;;;10.68;2.65;;;15.10;99.90;;;;;;4169807;28;20037;-71
2023/03/30 10:12:22;;;;;;;12.65;2.40;;;15.00;99.90;;;;;;4163818;28;20033;-71
2023/03/30 10:14:35;;;;;;;8.05;2.30;;;15.00;99.90;;;;;;4172077;28;20030;-69
2023/03/30 10:16:36;;;;;;;13.77;2.42;;;15.00;99.90;;;;;;4161543;28;20054;-71
2023/03/30 10:18:40;;;;;;;7.65;2.13;;;14.90;99.90;;;;;;4174602;28;20041;-71
2023/03/30 10:20:41;;;;;;;10.13;2.08;;;14.90;99.90;;;;;;4179098;28;20033;-71
2023/03/30 10:22:54;;;;;;;9.85;2.85;;;14.90;99.90;;;;;;4178441;28;20029;-71
2023/03/30 10:24:55;;;;;;;12.82;2.03;;;14.90;99.90;;;;;;4161338;28;20041;-70
2023/03/30 10:27:08;;;;;;;7.53;1.95;;;15.00;99.90;;;;;;4178548;28;20032;-70
2023/03/30 10:29:11;;;;;;;;;;;15.00;99.90;;;;;;4192061;28;20484;-71
2023/03/30 10:31:15;;;;;;;8.77;2.30;;;15.00;99.90;;;;;;4179610;28;20378;-71
2023/03/30 10:33:16;;;;;;;8.43;1.92;;;14.90;99.90;;;;;;4164221;28;20036;-69
2023/03/30 10:35:23;;;;;;;11.88;2.45;;;15.00;99.90;;;;;;4190874;28;20052;-69
2023/03/30 10:37:30;;;;;;;9.68;2.42;;;14.90;99.90;;;;;;4178563;28;20354;-67
2023/03/30 10:39:33;;;;;;;13.23;2.58;;;15.00;99.90;;;;;;4178486;28;20123;-70
2023/03/30 10:41:36;;;;;;;13.05;2.40;;;14.90;99.90;;;;;;4189334;28;20036;-69
2023/03/30 10:43:38;;;;;;;9.25;2.85;;;15.00;99.90;;;;;;4185455;28;20033;-70
2023/03/30 10:45:43;;;;;;;8.68;2.40;;;15.00;99.90;;;;;;4185605;28;20103;-70
2023/03/30 10:47:52;;;;;;;10.40;2.53;;;15.00;99.90;;;;;;4184943;28;20503;-70
2023/03/30 10:50:26;;;;;;;8.65;2.05;;;15.10;99.90;;;;;;4179280;28;20021;-69